Time;durP1;ratioP1;P1;durP2;ratioP2;P2;SDS_P1;SDS_P2;PMS_P1;PMS_P2;Temp;Humidity;BMP_temperature;BMP_pressure;BME280_temperature;BME280_humidity;BME280_pressure;Samples;Min_cycle;Max_cycle;Signal;HPM_P1;HPM_P2
2021/09/05 00:00:33;;;;;;;11.43;8.00;;;21.20;99.90;;;;;;5004442;28;20212;-65
2021/09/05 00:02:58;;;;;;;7.83;6.97;;;20.80;99.90;;;;;;4999497;28;20228;-66
2021/09/05 00:05:24;;;;;;;9.53;7.30;;;20.70;99.90;;;;;;5005404;28;20562;-67
2021/09/05 00:07:49;;;;;;;8.53;7.47;;;20.70;99.90;;;;;;5000115;28;20193;-66
2021/09/05 00:10:15;;;;;;;8.60;7.33;;;20.90;99.90;;;;;;4997217;28;20190;-66
2021/09/05 00:12:42;;;;;;;7.80;7.00;;;20.90;99.90;;;;;;5002426;28;20723;-66
2021/09/05 00:15:10;;;;;;;8.57;7.70;;;20.80;99.90;;;;;;5001522;28;20216;-66
2021/09/05 00:17:36;;;;;;;8.00;7.20;;;21.10;99.90;;;;;;5000732;28;20504;-66
2021/09/05 00:20:02;;;;;;;9.07;7.90;;;21.20;99.90;;;;;;5005890;28;20448;-66
2021/09/05 00:22:28;;;;;;;8.53;7.63;;;21.20;99.90;;;;;;5005160;28;20555;-66
2021/09/05 00:24:54;;;;;;;11.40;8.57;;;21.00;99.90;;;;;;5003176;28;20586;-65
2021/09/05 00:27:19;;;;;;;9.60;8.63;;;21.10;99.90;;;;;;5000849;28;20206;-66
2021/09/05 00:29:45;;;;;;;10.03;7.73;;;20.90;99.90;;;;;;5004767;28;20287;-65
2021/09/05 00:32:10;;;;;;;9.27;8.30;;;20.90;99.90;;;;;;5009035;28;20672;-66
2021/09/05 00:34:36;;;;;;;8.77;7.87;;;21.00;99.90;;;;;;5006874;28;20204;-66
2021/09/05 00:37:02;;;;;;;8.90;8.00;;;21.00;99.90;;;;;;5006802;28;20500;-66
2021/09/05 00:39:28;;;;;;;11.13;8.13;;;20.90;99.90;;;;;;5007352;28;20581;-65
2021/09/05 00:41:53;;;;;;;9.30;8.13;;;20.90;99.90;;;;;;5004861;28;20196;-65
2021/09/05 00:44:19;;;;;;;10.13;8.47;;;20.80;99.90;;;;;;5005472;28;20731;-65
2021/09/05 00:46:45;;;;;;;8.70;7.90;;;20.70;99.90;;;;;;5007803;28;20205;-65
2021/09/05 00:49:11;;;;;;;9.00;8.10;;;20.60;99.90;;;;;;5001208;28;20589;-66
2021/09/05 00:51:39;;;;;;;10.83;8.40;;;20.70;99.90;;;;;;5007632;28;20193;-65
2021/09/05 00:54:06;;;;;;;8.77;7.83;;;20.80;99.90;;;;;;5002448;28;20522;-66
2021/09/05 00:56:35;;;;;;;9.60;8.60;;;20.60;99.90;;;;;;5003783;28;20819;-66
2021/09/05 00:59:06;;;;;;;11.20;8.90;;;20.70;99.90;;;;;;5005453;28;20446;-65
2021/09/05 01:01:32;;;;;;;9.73;8.57;;;20.70;99.90;;;;;;5001607;28;20429;-65
2021/09/05 01:03:58;;;;;;;9.80;8.70;;;20.50;99.90;;;;;;5002848;28;20980;-66
2021/09/05 01:06:24;;;;;;;8.63;7.73;;;20.50;99.90;;;;;;5006945;28;20614;-66
2021/09/05 01:08:52;;;;;;;9.43;8.00;;;20.40;99.90;;;;;;5002343;28;20442;-66
2021/09/05 01:11:18;;;;;;;8.53;7.67;;;20.40;99.90;;;;;;5003984;28;20445;-62
2021/09/05 01:13:44;;;;;;;8.47;7.57;;;20.20;99.90;;;;;;5003477;28;20802;-62
2021/09/05 01:16:30;;;;;;;8.80;8.00;;;20.10;99.90;;;;;;5005620;28;20463;-62
2021/09/05 01:19:06;;;;;;;8.47;7.67;;;20.00;99.90;;;;;;5006823;28;20567;-62
2021/09/05 01:21:33;;;;;;;10.60;7.90;;;20.10;99.90;;;;;;5003941;28;20443;-63
2021/09/05 01:24:00;;;;;;;10.13;9.13;;;19.90;99.90;;;;;;5000426;28;20467;-62
2021/09/05 01:26:29;;;;;;;9.70;8.70;;;19.80;99.90;;;;;;5002031;28;20456;-62
2021/09/05 01:28:56;;;;;;;9.47;8.67;;;20.00;99.90;;;;;;5002821;28;20409;-63
2021/09/05 01:31:23;;;;;;;10.80;8.40;;;20.00;99.90;;;;;;5002042;28;20463;-62
2021/09/05 01:33:49;;;;;;;10.80;9.70;;;20.00;99.90;;;;;;5002735;28;20420;-62
2021/09/05 01:36:18;;;;;;;10.17;8.30;;;19.90;99.90;;;;;;5003332;28;20531;-62
2021/09/05 01:38:43;;;;;;;11.00;9.20;;;19.80;99.90;;;;;;5002907;28;20505;-63
2021/09/05 01:41:09;;;;;;;11.03;8.60;;;19.90;99.90;;;;;;5004409;28;20534;-62
2021/09/05 01:43:35;;;;;;;14.10;9.27;;;19.90;99.90;;;;;;5005512;28;20228;-63
2021/09/05 01:46:00;;;;;;;9.47;8.53;;;19.80;99.90;;;;;;5004008;28;20304;-63
2021/09/05 01:48:26;;;;;;;16.73;9.20;;;19.90;99.90;;;;;;5005718;28;20216;-63
2021/09/05 01:50:52;;;;;;;11.97;8.80;;;19.90;99.90;;;;;;5002049;28;20196;-63
2021/09/05 01:53:17;;;;;;;9.03;8.13;;;19.80;99.90;;;;;;5004128;28;20185;-63
2021/09/05 01:55:43;;;;;;;9.80;8.23;;;19.70;99.90;;;;;;5001459;28;20225;-62
2021/09/05 01:58:08;;;;;;;11.93;9.13;;;19.70;99.90;;;;;;5019780;28;20551;-63
2021/09/05 02:00:35;;;;;;;13.67;8.30;;;19.60;99.90;;;;;;5003618;28;20216;-63
2021/09/05 02:03:01;;;;;;;10.47;8.53;;;19.60;99.90;;;;;;5003604;28;20225;-63
2021/09/05 02:05:26;;;;;;;9.83;8.83;;;19.80;99.90;;;;;;5003064;28;20452;-63
2021/09/05 02:07:52;;;;;;;9.30;8.40;;;19.70;99.90;;;;;;5003886;28;20601;-62
2021/09/05 02:10:18;;;;;;;12.00;9.20;;;19.70;99.90;;;;;;5002338;28;20201;-63
2021/09/05 02:12:43;;;;;;;10.23;8.60;;;19.70;99.90;;;;;;5004224;28;20193;-63
2021/09/05 02:15:09;;;;;;;9.80;8.60;;;19.70;99.90;;;;;;4997142;28;20699;-62
2021/09/05 02:17:35;;;;;;;8.93;8.03;;;19.70;99.90;;;;;;5002934;28;20207;-63
2021/09/05 02:20:00;;;;;;;9.33;8.17;;;19.70;99.90;;;;;;5004125;28;20276;-62
2021/09/05 02:22:26;;;;;;;10.90;9.10;;;19.80;99.90;;;;;;5002707;28;20240;-62
2021/09/05 02:24:51;;;;;;;10.80;8.43;;;19.90;99.90;;;;;;5002631;28;20189;-62
2021/09/05 02:27:17;;;;;;;10.20;8.73;;;19.90;99.90;;;;;;5003139;28;20212;-62
2021/09/05 02:29:43;;;;;;;10.00;9.00;;;19.80;99.90;;;;;;5004536;28;20204;-63
2021/09/05 02:32:08;;;;;;;9.10;8.10;;;19.50;99.90;;;;;;5003556;28;20192;-62
2021/09/05 02:34:34;;;;;;;9.83;8.83;;;19.60;99.90;;;;;;5002925;28;20236;-62
2021/09/05 02:37:00;;;;;;;9.90;8.63;;;19.50;99.90;;;;;;5000992;28;20217;-63
2021/09/05 02:39:26;;;;;;;10.63;9.23;;;19.50;99.90;;;;;;5005052;28;20193;-62
2021/09/05 02:41:51;;;;;;;9.73;8.83;;;19.50;99.90;;;;;;5003642;28;20609;-62
2021/09/05 02:44:17;;;;;;;9.80;8.80;;;19.20;99.90;;;;;;5000115;28;20432;-62
2021/09/05 02:46:43;;;;;;;10.80;9.07;;;19.30;99.90;;;;;;5003153;28;20578;-63
2021/09/05 02:49:08;;;;;;;11.87;8.50;;;19.40;99.90;;;;;;4999630;28;20196;-63
2021/09/05 02:51:34;;;;;;;11.27;9.20;;;19.50;99.90;;;;;;5000981;28;20213;-62
2021/09/05 02:54:00;;;;;;;10.03;9.00;;;19.40;99.90;;;;;;5003261;28;20205;-62
2021/09/05 02:56:25;;;;;;;11.67;8.37;;;19.40;99.90;;;;;;5003326;28;20303;-62
2021/09/05 02:58:51;;;;;;;13.10;9.17;;;19.40;99.90;;;;;;5000607;28;20248;-62
2021/09/05 03:01:16;;;;;;;11.07;9.30;;;19.40;99.90;;;;;;5003154;28;20576;-62
2021/09/05 03:03:42;;;;;;;10.73;8.60;;;19.50;99.90;;;;;;4998904;28;20217;-62
2021/09/05 03:06:08;;;;;;;11.60;9.30;;;19.60;99.90;;;;;;4998328;28;20695;-62
2021/09/05 03:08:33;;;;;;;12.23;8.77;;;19.50;99.90;;;;;;5001088;28;20197;-63
2021/09/05 03:10:59;;;;;;;9.63;8.67;;;19.40;99.90;;;;;;4999027;28;20197;-62
2021/09/05 03:13:24;;;;;;;13.07;10.30;;;19.40;99.90;;;;;;5004709;28;20859;-62
2021/09/05 03:15:50;;;;;;;11.00;9.60;;;19.40;99.90;;;;;;4999652;28;20223;-62
2021/09/05 03:18:16;;;;;;;11.40;8.70;;;19.30;99.90;;;;;;4997521;28;20194;-62
2021/09/05 03:20:41;;;;;;;10.80;9.57;;;19.20;99.90;;;;;;5002909;28;20578;-63
2021/09/05 03:23:07;;;;;;;10.13;9.07;;;19.20;99.90;;;;;;4999916;28;20219;-63
2021/09/05 03:25:33;;;;;;;10.30;8.90;;;19.00;99.90;;;;;;5002587;28;20224;-64
2021/09/05 03:27:58;;;;;;;10.40;9.30;;;19.10;99.90;;;;;;4999509;28;20617;-62
2021/09/05 03:30:24;;;;;;;10.60;9.50;;;19.00;99.90;;;;;;4998974;28;20194;-62
2021/09/05 03:32:49;;;;;;;10.30;9.30;;;19.10;99.90;;;;;;5001573;28;20196;-62
2021/09/05 03:35:15;;;;;;;11.43;9.17;;;19.20;99.90;;;;;;5002230;28;20216;-63
2021/09/05 03:37:40;;;;;;;11.27;9.20;;;19.10;99.90;;;;;;5001584;28;20239;-63
2021/09/05 03:40:07;;;;;;;9.10;8.10;;;19.10;99.90;;;;;;4996734;28;20278;-62
2021/09/05 03:42:32;;;;;;;9.63;8.40;;;18.90;99.90;;;;;;5000791;28;20555;-63
2021/09/05 03:44:58;;;;;;;10.57;8.80;;;18.90;99.90;;;;;;5003719;28;20485;-62
2021/09/05 03:47:24;;;;;;;9.23;8.23;;;19.00;99.90;;;;;;5001501;28;20602;-63
2021/09/05 03:49:50;;;;;;;10.50;9.10;;;19.10;99.90;;;;;;5002395;28;20201;-63
2021/09/05 03:52:16;;;;;;;10.33;8.87;;;19.10;99.90;;;;;;5005090;28;20448;-65
2021/09/05 03:54:42;;;;;;;10.63;8.20;;;19.10;99.90;;;;;;5001797;28;20232;-67
2021/09/05 03:57:07;;;;;;;11.43;8.87;;;19.00;99.90;;;;;;5008094;28;20974;-66
2021/09/05 03:59:33;;;;;;;8.50;7.63;;;19.00;99.90;;;;;;5004972;28;20665;-67
2021/09/05 04:01:59;;;;;;;10.40;9.27;;;19.00;99.90;;;;;;5004974;28;20193;-65
2021/09/05 04:04:24;;;;;;;11.87;8.53;;;19.00;99.90;;;;;;5004897;28;20654;-66
2021/09/05 04:07:00;;;;;;;9.90;8.90;;;19.00;99.90;;;;;;5005035;28;20209;-67
2021/09/05 04:12:11;;;;;;;9.57;8.17;;;18.90;99.90;;;;;;5005302;28;20459;-66
2021/09/05 04:14:36;;;;;;;9.57;8.57;;;18.90;99.90;;;;;;5003490;28;20432;-66
2021/09/05 04:17:02;;;;;;;11.07;8.40;;;19.00;99.90;;;;;;5002921;28;20684;-66
2021/09/05 04:19:28;;;;;;;8.87;7.97;;;19.00;99.90;;;;;;5001556;28;20202;-65
2021/09/05 04:21:53;;;;;;;12.47;8.77;;;19.00;99.90;;;;;;5003507;28;20197;-67
2021/09/05 04:24:19;;;;;;;11.60;9.07;;;19.00;99.90;;;;;;5003630;28;20178;-66
2021/09/05 04:26:45;;;;;;;11.90;9.60;;;19.00;99.90;;;;;;5006833;28;20204;-66
2021/09/05 04:29:11;;;;;;;10.60;8.90;;;19.00;99.90;;;;;;5006704;28;20212;-67
2021/09/05 04:31:36;;;;;;;10.33;9.23;;;19.00;99.90;;;;;;5007040;28;20424;-67
2021/09/05 04:34:02;;;;;;;10.47;8.90;;;19.00;99.90;;;;;;5005040;28;20193;-66
2021/09/05 04:36:28;;;;;;;9.73;8.57;;;18.90;99.90;;;;;;5003364;28;20224;-65
2021/09/05 04:38:53;;;;;;;9.57;8.67;;;18.90;99.90;;;;;;5008517;28;20193;-66
2021/09/05 04:41:19;;;;;;;10.40;8.93;;;18.90;99.90;;;;;;5004197;28;20244;-67
2021/09/05 04:43:44;;;;;;;10.50;8.43;;;19.00;99.90;;;;;;5007265;28;20209;-66
2021/09/05 04:46:10;;;;;;;9.27;8.37;;;18.80;99.90;;;;;;5007527;28;20332;-66
2021/09/05 04:48:35;;;;;;;10.20;8.47;;;18.90;99.90;;;;;;5005174;28;20185;-66
2021/09/05 04:51:01;;;;;;;12.53;9.10;;;18.90;99.90;;;;;;5004802;28;20245;-67
2021/09/05 04:53:27;;;;;;;9.50;8.50;;;18.90;99.90;;;;;;5008717;28;20186;-67
2021/09/05 04:55:52;;;;;;;10.03;8.77;;;18.60;99.90;;;;;;5003393;28;20839;-66
2021/09/05 04:58:18;;;;;;;8.87;7.97;;;18.70;99.90;;;;;;5007126;28;20169;-66
2021/09/05 05:00:43;;;;;;;11.13;8.70;;;18.70;99.90;;;;;;5003248;28;20279;-66
2021/09/05 05:03:09;;;;;;;10.33;9.20;;;18.80;99.90;;;;;;5005929;28;20656;-66
2021/09/05 05:05:36;;;;;;;9.77;8.63;;;18.60;99.90;;;;;;4999941;28;20197;-66
2021/09/05 05:08:02;;;;;;;9.13;8.10;;;18.70;99.90;;;;;;5002133;28;20193;-66
2021/09/05 05:10:28;;;;;;;12.67;8.67;;;18.70;99.90;;;;;;5005759;28;20439;-67
2021/09/05 05:12:53;;;;;;;8.20;7.40;;;18.70;99.90;;;;;;5007734;28;20276;-66
2021/09/05 05:15:19;;;;;;;10.53;8.47;;;18.70;99.90;;;;;;5005015;28;20189;-66
2021/09/05 05:17:44;;;;;;;9.43;8.50;;;18.80;99.90;;;;;;5006668;28;20251;-66
2021/09/05 05:20:11;;;;;;;9.43;8.00;;;18.70;99.90;;;;;;5005122;28;20196;-67
2021/09/05 05:22:37;;;;;;;11.50;9.00;;;18.80;99.90;;;;;;5004214;28;20217;-66
2021/09/05 05:25:05;;;;;;;11.27;8.90;;;18.80;99.90;;;;;;5002203;28;20919;-66
2021/09/05 05:27:31;;;;;;;10.10;8.47;;;18.80;99.90;;;;;;5004384;28;20411;-67
2021/09/05 05:29:56;;;;;;;10.60;8.93;;;18.80;99.90;;;;;;5005753;28;20511;-62
2021/09/05 05:32:22;;;;;;;10.93;7.97;;;18.80;99.90;;;;;;5002294;28;20186;-63
2021/09/05 05:34:47;;;;;;;10.37;8.83;;;18.80;99.90;;;;;;5003811;28;20193;-63
2021/09/05 05:37:14;;;;;;;11.53;9.07;;;18.80;99.90;;;;;;5002891;28;20216;-62
2021/09/05 05:39:40;;;;;;;10.70;9.00;;;18.90;99.90;;;;;;5004430;28;20591;-63
2021/09/05 05:42:05;;;;;;;10.07;7.97;;;18.90;99.90;;;;;;5004461;28;20762;-63
2021/09/05 05:44:31;;;;;;;8.80;7.90;;;18.90;99.90;;;;;;5005600;28;20189;-63
2021/09/05 05:46:57;;;;;;;11.47;8.47;;;18.90;99.90;;;;;;5001714;28;20233;-63
2021/09/05 05:49:22;;;;;;;8.70;7.80;;;18.90;99.90;;;;;;5002010;28;20186;-63
2021/09/05 05:51:48;;;;;;;11.70;8.37;;;19.00;99.90;;;;;;5006165;28;20190;-63
2021/09/05 05:54:15;;;;;;;11.00;9.00;;;19.10;99.90;;;;;;5006581;28;20174;-64
2021/09/05 05:56:42;;;;;;;11.23;9.77;;;19.00;99.90;;;;;;5005988;28;20217;-62
2021/09/05 05:59:08;;;;;;;9.73;8.70;;;19.00;99.90;;;;;;5006295;28;20465;-64
2021/09/05 06:01:34;;;;;;;11.60;10.17;;;19.00;99.90;;;;;;5000649;28;20464;-63
2021/09/05 06:03:59;;;;;;;9.43;8.30;;;19.00;99.90;;;;;;5005885;28;20299;-62
2021/09/05 06:06:25;;;;;;;10.10;9.03;;;18.90;99.90;;;;;;4998754;28;20208;-64
2021/09/05 06:08:51;;;;;;;10.07;8.40;;;18.90;99.90;;;;;;5006227;28;20204;-64
2021/09/05 06:11:17;;;;;;;9.63;8.60;;;18.80;99.90;;;;;;5004406;28;20236;-63
2021/09/05 06:13:42;;;;;;;9.77;8.57;;;18.80;99.90;;;;;;5004533;28;20191;-62
2021/09/05 06:16:08;;;;;;;9.87;8.87;;;19.00;99.90;;;;;;5004643;28;20884;-63
2021/09/05 06:18:33;;;;;;;10.47;8.70;;;19.10;99.90;;;;;;5003309;28;20193;-64
2021/09/05 06:20:59;;;;;;;10.57;9.30;;;19.10;99.90;;;;;;5000649;28;20684;-62
2021/09/05 06:23:25;;;;;;;11.47;9.37;;;19.20;99.90;;;;;;5002997;28;20199;-64
2021/09/05 06:25:50;;;;;;;9.50;8.60;;;19.20;99.90;;;;;;5005804;28;20675;-64
2021/09/05 06:28:16;;;;;;;10.40;8.80;;;19.20;99.90;;;;;;5004745;28;20181;-64
2021/09/05 06:30:41;;;;;;;12.13;9.67;;;19.10;99.90;;;;;;5003852;28;20194;-63
2021/09/05 06:33:07;;;;;;;9.13;8.10;;;19.00;99.90;;;;;;5005074;28;20194;-63
2021/09/05 06:35:33;;;;;;;11.30;10.03;;;19.00;99.90;;;;;;4999815;28;20204;-63
2021/09/05 06:37:58;;;;;;;13.77;9.00;;;19.00;99.90;;;;;;5001487;28;20243;-63
2021/09/05 06:40:24;;;;;;;9.77;8.80;;;19.00;99.90;;;;;;4998003;28;20186;-63
2021/09/05 06:42:49;;;;;;;10.17;9.13;;;19.10;99.90;;;;;;5003085;28;20209;-63
2021/09/05 06:45:15;;;;;;;9.43;8.47;;;19.10;99.90;;;;;;5004907;28;20205;-62
2021/09/05 06:47:41;;;;;;;9.50;8.27;;;19.20;99.90;;;;;;5021189;28;20189;-63
2021/09/05 06:50:07;;;;;;;10.20;8.53;;;19.30;99.90;;;;;;5004143;28;20328;-63
2021/09/05 06:52:32;;;;;;;9.70;8.70;;;19.30;99.90;;;;;;5007134;28;20376;-63
2021/09/05 06:54:58;;;;;;;11.90;9.47;;;19.30;99.90;;;;;;5002017;28;20444;-62
2021/09/05 06:57:25;;;;;;;10.80;8.40;;;19.30;99.90;;;;;;5001699;28;20643;-63
2021/09/05 06:59:50;;;;;;;9.60;8.43;;;19.30;99.90;;;;;;5002355;28;20314;-62
2021/09/05 07:02:17;;;;;;;9.33;8.43;;;19.40;99.90;;;;;;5004426;28;21060;-63
2021/09/05 07:04:43;;;;;;;9.47;8.40;;;19.50;99.90;;;;;;5003004;28;20195;-63
2021/09/05 07:07:08;;;;;;;10.13;7.93;;;19.40;99.90;;;;;;4996508;28;20457;-63
2021/09/05 07:09:34;;;;;;;10.13;9.00;;;19.40;99.90;;;;;;4996857;28;20192;-62
2021/09/05 07:11:59;;;;;;;9.80;8.77;;;19.70;99.90;;;;;;5004052;28;20219;-62
2021/09/05 07:14:25;;;;;;;9.93;8.20;;;19.80;99.90;;;;;;4997864;28;20181;-62
2021/09/05 07:16:50;;;;;;;12.67;8.47;;;20.00;99.90;;;;;;5002995;28;20271;-63
2021/09/05 07:19:16;;;;;;;8.93;8.03;;;20.00;99.90;;;;;;5002714;28;20706;-62
2021/09/05 07:21:42;;;;;;;8.63;7.77;;;20.10;99.90;;;;;;5003934;28;20617;-62
2021/09/05 07:24:07;;;;;;;10.87;8.07;;;20.00;99.90;;;;;;5002037;28;20221;-63
2021/09/05 07:26:33;;;;;;;10.23;8.80;;;19.90;99.90;;;;;;5002414;28;20543;-63
2021/09/05 07:28:59;;;;;;;9.60;8.60;;;19.90;99.90;;;;;;5002105;28;20209;-63
2021/09/05 07:31:25;;;;;;;11.30;8.30;;;20.10;99.90;;;;;;5004159;28;20263;-63
2021/09/05 07:33:51;;;;;;;9.60;8.03;;;20.10;99.90;;;;;;5002586;28;20440;-63
2021/09/05 07:36:16;;;;;;;9.30;7.10;;;20.30;99.90;;;;;;5000997;28;20707;-63
2021/09/05 07:38:42;;;;;;;8.57;7.70;;;20.50;99.90;;;;;;4998854;28;20221;-63
2021/09/05 07:41:07;;;;;;;7.57;6.70;;;20.50;99.90;;;;;;4999079;28;20698;-62
2021/09/05 07:43:33;;;;;;;10.90;7.80;;;20.50;99.90;;;;;;5002184;28;20209;-63
2021/09/05 07:46:00;;;;;;;9.70;8.70;;;20.40;99.90;;;;;;5000610;28;20288;-62
2021/09/05 07:48:25;;;;;;;9.80;7.70;;;20.40;99.90;;;;;;5002744;28;20213;-63
2021/09/05 07:50:51;;;;;;;8.87;7.80;;;20.60;99.90;;;;;;5002595;28;20476;-62
2021/09/05 07:53:17;;;;;;;9.93;7.90;;;20.80;99.90;;;;;;5001179;28;20730;-63
2021/09/05 07:55:42;;;;;;;8.60;7.63;;;20.80;99.90;;;;;;5003053;28;20883;-63
2021/09/05 07:58:08;;;;;;;10.00;8.23;;;20.80;99.90;;;;;;5002001;28;20198;-63
2021/09/05 08:00:33;;;;;;;8.83;7.70;;;21.00;99.90;;;;;;5001107;28;20220;-63
2021/09/05 08:02:59;;;;;;;11.17;8.57;;;21.10;99.90;;;;;;5001572;28;20220;-63
2021/09/05 08:05:25;;;;;;;10.93;8.00;;;20.90;99.90;;;;;;5002596;28;20185;-63
2021/09/05 08:07:50;;;;;;;8.40;7.60;;;21.00;99.90;;;;;;4999296;28;20215;-63
2021/09/05 08:10:16;;;;;;;9.33;8.10;;;20.90;99.90;;;;;;4999137;28;20221;-63
2021/09/05 08:12:42;;;;;;;10.33;6.77;;;20.80;99.90;;;;;;5014122;28;20224;-63
2021/09/05 08:15:08;;;;;;;10.40;8.00;;;21.00;99.90;;;;;;5002182;28;20228;-63
2021/09/05 08:17:33;;;;;;;8.90;8.00;;;20.90;99.90;;;;;;5000944;28;20618;-62
2021/09/05 08:19:59;;;;;;;11.53;8.73;;;21.10;99.90;;;;;;4998637;28;20543;-63
2021/09/05 08:22:25;;;;;;;9.13;8.23;;;21.10;99.90;;;;;;5002998;28;20216;-63
2021/09/05 08:24:50;;;;;;;8.90;7.27;;;21.20;99.90;;;;;;5003442;28;20439;-62
2021/09/05 08:27:16;;;;;;;10.30;8.40;;;21.30;99.90;;;;;;5002350;28;20264;-62
2021/09/05 08:29:42;;;;;;;8.80;7.90;;;21.30;99.90;;;;;;5002097;28;20675;-62
2021/09/05 08:32:07;;;;;;;8.40;7.47;;;21.30;99.90;;;;;;4999976;28;20289;-62
2021/09/05 08:34:36;;;;;;;9.83;8.10;;;21.40;99.90;;;;;;4998413;28;20185;-63
2021/09/05 08:37:03;;;;;;;8.00;7.20;;;21.50;99.90;;;;;;4999686;28;20236;-63
2021/09/05 08:39:29;;;;;;;8.17;7.37;;;21.30;99.90;;;;;;5000101;28;20434;-63
2021/09/05 08:41:56;;;;;;;8.87;6.87;;;21.10;99.90;;;;;;4999538;28;20448;-63
2021/09/05 08:44:23;;;;;;;8.17;7.37;;;21.20;99.90;;;;;;5004905;28;20212;-62
2021/09/05 08:46:51;;;;;;;11.10;8.30;;;21.10;99.90;;;;;;5006962;28;20547;-63
2021/09/05 08:49:17;;;;;;;9.50;7.57;;;21.00;99.90;;;;;;5004780;28;20424;-63
2021/09/05 08:51:43;;;;;;;8.60;7.47;;;21.00;99.90;;;;;;5005973;28;20427;-63
2021/09/05 08:54:09;;;;;;;8.17;7.37;;;21.00;99.90;;;;;;5003506;28;20433;-64
2021/09/05 08:56:35;;;;;;;8.53;7.63;;;21.00;99.90;;;;;;5001034;28;20444;-63
2021/09/05 08:59:01;;;;;;;8.47;7.67;;;21.20;99.90;;;;;;5004993;28;20451;-63
2021/09/05 09:01:28;;;;;;;8.67;7.33;;;21.20;99.90;;;;;;5006205;28;20589;-63
2021/09/05 09:04:05;;;;;;;8.17;7.17;;;21.30;99.90;;;;;;5007553;28;20221;-63
2021/09/05 09:06:37;;;;;;;9.70;7.30;;;21.50;99.90;;;;;;5005521;28;20680;-62
2021/09/05 09:09:04;;;;;;;9.03;7.53;;;21.50;99.90;;;;;;5002156;28;20424;-63
2021/09/05 09:11:54;;;;;;;8.80;7.90;;;21.60;99.90;;;;;;5009215;28;20451;-63
2021/09/05 09:14:24;;;;;;;7.50;6.80;;;21.60;99.90;;;;;;4993737;28;20955;-63
2021/09/05 09:16:51;;;;;;;11.33;7.47;;;21.60;99.90;;;;;;5006637;28;20700;-63
2021/09/05 09:19:24;;;;;;;9.07;8.07;;;21.80;99.90;;;;;;5005609;28;20957;-62
2021/09/05 09:21:49;;;;;;;8.93;8.03;;;21.90;99.90;;;;;;5005276;28;20435;-63
2021/09/05 09:24:18;;;;;;;9.13;8.23;;;21.90;99.90;;;;;;5003541;28;20480;-62
2021/09/05 09:27:03;;;;;;;9.00;7.77;;;22.00;99.90;;;;;;5001307;28;20296;-63
2021/09/05 09:29:29;;;;;;;8.30;7.23;;;22.00;99.90;;;;;;5004295;28;20789;-63
2021/09/05 09:32:07;;;;;;;7.93;7.13;;;22.10;99.90;;;;;;5005797;28;20452;-62
2021/09/05 09:34:50;;;;;;;8.37;7.57;;;22.30;99.90;;;;;;5003138;28;20412;-63
2021/09/05 09:37:21;;;;;;;9.23;7.30;;;22.40;99.90;;;;;;5003659;28;20474;-63
2021/09/05 09:39:52;;;;;;;8.10;7.40;;;22.40;99.90;;;;;;5004715;28;20436;-63
2021/09/05 09:42:38;;;;;;;7.93;7.10;;;22.40;99.90;;;;;;5002588;28;20425;-63
2021/09/05 09:45:10;;;;;;;7.90;7.10;;;22.50;99.90;;;;;;5001435;28;20419;-62
2021/09/05 09:47:50;;;;;;;9.10;7.50;;;22.60;99.90;;;;;;5002903;28;20432;-63
2021/09/05 09:50:23;;;;;;;9.67;7.83;;;22.70;99.90;;;;;;5004204;28;20444;-64
2021/09/05 09:52:48;;;;;;;9.93;7.67;;;22.80;99.90;;;;;;5002839;28;20429;-62
2021/09/05 09:55:14;;;;;;;8.70;7.90;;;22.80;99.90;;;;;;5002368;28;20429;-63
2021/09/05 09:57:41;;;;;;;7.43;6.67;;;22.80;99.90;;;;;;5002957;28;20620;-63
2021/09/05 10:00:08;;;;;;;9.33;8.27;;;22.80;99.90;;;;;;5004678;28;20251;-64
2021/09/05 10:02:38;;;;;;;9.30;8.30;;;22.90;99.90;;;;;;5003646;28;20514;-62
2021/09/05 10:05:05;;;;;;;7.90;7.10;;;23.00;99.90;;;;;;5004394;28;20475;-63
2021/09/05 10:07:32;;;;;;;8.63;7.83;;;23.10;99.90;;;;;;5004938;28;20516;-63
2021/09/05 10:10:02;;;;;;;8.07;7.27;;;23.20;99.90;;;;;;5002741;28;20426;-63
2021/09/05 10:12:30;;;;;;;9.67;8.47;;;23.30;99.90;;;;;;5004990;28;20419;-63
2021/09/05 10:14:58;;;;;;;8.07;7.27;;;23.40;99.90;;;;;;5007240;28;20509;-63
2021/09/05 10:17:24;;;;;;;7.83;7.07;;;23.40;99.90;;;;;;5004891;28;21081;-63
2021/09/05 10:19:52;;;;;;;8.83;7.97;;;23.50;99.90;;;;;;5004355;28;20428;-63
2021/09/05 10:22:20;;;;;;;8.20;7.40;;;23.50;99.90;;;;;;5001267;28;21073;-63
2021/09/05 10:24:51;;;;;;;8.00;7.20;;;23.60;99.90;;;;;;5002456;28;20428;-63
2021/09/05 10:27:34;;;;;;;7.00;6.30;;;23.70;99.90;;;;;;5003185;28;20440;-63
2021/09/05 10:30:23;;;;;;;7.93;6.73;;;23.70;99.90;;;;;;5003038;28;20436;-63
2021/09/05 10:33:01;;;;;;;8.10;7.30;;;23.80;99.90;;;;;;5000719;28;20483;-63
2021/09/05 10:35:37;;;;;;;8.63;6.63;;;23.80;99.90;;;;;;5003050;28;20438;-62
2021/09/05 10:38:09;;;;;;;10.43;7.40;;;23.90;99.90;;;;;;5002362;28;20436;-63
2021/09/05 10:40:41;;;;;;;10.23;8.77;;;24.00;99.90;;;;;;5006066;28;20751;-63
2021/09/05 10:43:07;;;;;;;8.50;6.80;;;24.10;99.90;;;;;;5001104;28;20486;-62
2021/09/05 10:45:37;;;;;;;9.87;7.57;;;24.10;99.90;;;;;;5005203;28;20453;-62
2021/09/05 10:48:23;;;;;;;8.10;7.30;;;24.20;99.90;;;;;;5002767;28;20440;-63
2021/09/05 10:50:51;;;;;;;8.27;7.47;;;24.30;99.90;;;;;;4999957;28;20435;-63
2021/09/05 10:53:20;;;;;;;8.30;6.73;;;24.40;99.90;;;;;;5005046;28;20938;-62
2021/09/05 10:56:24;;;;;;;8.20;7.30;;;24.40;99.90;;;;;;5003548;28;20456;-62
2021/09/05 10:58:56;;;;;;;8.47;7.10;;;24.50;99.90;;;;;;4945351;29;20465;-63
2021/09/05 11:01:33;;;;;;;8.47;7.60;;;24.60;99.90;;;;;;4941794;28;20459;-63
2021/09/05 11:04:14;;;;;;;9.20;7.33;;;24.60;99.90;;;;;;4978047;28;20558;-64
2021/09/05 11:06:41;;;;;;;7.03;6.33;;;24.70;99.90;;;;;;5004496;28;20455;-63
2021/09/05 11:09:20;;;;;;;8.80;6.90;;;24.90;99.90;;;;;;5001421;28;20444;-63
2021/09/05 11:12:18;;;;;;;7.53;6.90;;;25.00;99.90;;;;;;5000134;28;20420;-63
2021/09/05 11:14:47;;;;;;;6.90;6.23;;;25.20;99.90;;;;;;4998922;28;20441;-64
2021/09/05 11:17:15;;;;;;;6.87;6.00;;;25.20;99.90;;;;;;4999325;28;20865;-63
2021/09/05 11:19:47;;;;;;;6.97;6.37;;;25.30;99.90;;;;;;5001978;28;20567;-64
2021/09/05 11:22:16;;;;;;;11.83;8.10;;;25.40;99.90;;;;;;5000326;28;20510;-63
2021/09/05 11:24:42;;;;;;;7.37;6.67;;;25.50;99.90;;;;;;5003682;28;20944;-63
2021/09/05 11:27:13;;;;;;;13.17;7.00;;;25.50;99.90;;;;;;5003983;28;20575;-63
2021/09/05 11:29:39;;;;;;;7.50;6.80;;;25.60;99.90;;;;;;5003569;28;20499;-63
2021/09/05 11:32:10;;;;;;;7.20;6.53;;;25.80;99.90;;;;;;5005637;28;20535;-63
2021/09/05 11:34:37;;;;;;;8.00;6.93;;;26.00;99.90;;;;;;5000708;28;20199;-64
2021/09/05 11:37:03;;;;;;;6.67;6.07;;;26.10;99.90;;;;;;5000314;28;20436;-63
2021/09/05 11:39:29;;;;;;;6.30;5.70;;;26.20;99.90;;;;;;5002310;28;20574;-63
2021/09/05 11:42:02;;;;;;;7.60;6.73;;;26.30;99.90;;;;;;4999432;28;20432;-63
2021/09/05 11:44:29;;;;;;;6.93;6.20;;;26.40;99.90;;;;;;5002633;28;20463;-63
2021/09/05 11:47:17;;;;;;;8.07;6.83;;;26.50;99.90;;;;;;5001128;28;20470;-63
2021/09/05 11:49:52;;;;;;;6.23;5.67;;;26.60;99.90;;;;;;5003067;28;20969;-61
2021/09/05 11:52:24;;;;;;;8.57;6.70;;;26.90;99.90;;;;;;5001889;28;20424;-62
2021/09/05 11:55:13;;;;;;;6.40;5.80;;;27.10;99.90;;;;;;5004061;28;20412;-62
2021/09/05 11:57:52;;;;;;;6.87;6.27;;;27.30;99.90;;;;;;5005338;28;20439;-63
2021/09/05 12:00:54;;;;;;;8.50;5.23;;;27.60;99.90;;;;;;5000370;28;20452;-63
2021/09/05 12:03:29;;;;;;;6.37;5.60;;;28.60;99.90;;;;;;4978861;28;21786;-63
2021/09/05 12:05:55;;;;;;;5.97;5.37;;;29.70;99.90;;;;;;5004479;28;21242;-63
2021/09/05 12:08:21;;;;;;;5.67;5.17;;;30.60;99.90;;;;;;5006148;28;20455;-63
2021/09/05 12:11:04;;;;;;;6.73;6.03;;;31.40;98.10;;;;;;5000544;28;20424;-63
2021/09/05 12:13:49;;;;;;;7.20;6.50;;;31.90;95.80;;;;;;5002535;28;20196;-63
2021/09/05 12:16:30;;;;;;;6.50;5.90;;;32.60;93.90;;;;;;4999593;28;20419;-63
2021/09/05 12:19:07;;;;;;;6.63;6.00;;;33.20;92.00;;;;;;5002638;28;20826;-64
2021/09/05 12:21:38;;;;;;;6.40;5.80;;;33.70;88.60;;;;;;5008093;28;20427;-63
2021/09/05 12:24:13;;;;;;;6.23;5.73;;;34.00;82.60;;;;;;5003773;28;20446;-63
2021/09/05 12:26:38;;;;;;;6.03;5.50;;;34.30;78.00;;;;;;5002902;28;21153;-64
2021/09/05 12:29:06;;;;;;;5.70;5.20;;;34.50;72.60;;;;;;5001263;28;20390;-63
2021/09/05 12:31:47;;;;;;;5.53;5.03;;;34.90;68.60;;;;;;5006699;28;20244;-63
2021/09/05 12:34:38;;;;;;;5.90;5.40;;;35.20;67.60;;;;;;5008118;28;20414;-63
2021/09/05 12:37:21;;;;;;;6.30;5.40;;;35.20;66.90;;;;;;5004781;28;20745;-63
2021/09/05 12:39:48;;;;;;;6.20;5.70;;;35.40;63.70;;;;;;5005079;28;20438;-63
2021/09/05 12:42:16;;;;;;;6.10;5.60;;;35.60;63.80;;;;;;5002993;28;20459;-63
2021/09/05 12:44:44;;;;;;;5.60;5.10;;;35.70;59.80;;;;;;5007153;28;20489;-64
2021/09/05 12:47:11;;;;;;;5.60;5.10;;;36.10;58.30;;;;;;5006455;28;20502;-63
2021/09/05 12:49:40;;;;;;;6.07;5.47;;;36.20;58.50;;;;;;5003673;28;20467;-63